Time;durP1;ratioP1;P1;durP2;ratioP2;P2;SDS_P1;SDS_P2;PMS_P1;PMS_P2;Temp;Humidity;BMP_temperature;BMP_pressure;BME280_temperature;BME280_humidity;BME280_pressure;Samples;Min_cycle;Max_cycle;Signal;HPM_P1;HPM_P2
2021/12/12 00:01:15;;;;;;;54.42;24.40;;;;;;;-0.47;73.55;99033.94;5111364;28;20080;-77
2021/12/12 00:03:49;;;;;;;59.47;22.98;;;;;;;-0.40;73.43;99031.22;5111412;28;20019;-78
2021/12/12 00:06:15;;;;;;;73.35;27.88;;;;;;;-0.36;73.04;99027.06;5112248;28;20028;-78
2021/12/12 00:08:42;;;;;;;55.95;24.48;;;;;;;-0.36;73.01;99028.91;5111401;28;20467;-77
2021/12/12 00:11:11;;;;;;;61.38;26.30;;;;;;;-0.42;73.04;99021.69;5110906;28;20520;-78
2021/12/12 00:13:45;;;;;;;62.08;26.00;;;;;;;-0.42;73.33;99035.16;5105417;27;20032;-78
2021/12/12 00:16:10;;;;;;;59.10;27.20;;;;;;;-0.39;73.03;99045.50;5111021;28;20034;-78
2021/12/12 00:18:36;;;;;;;62.50;26.02;;;;;;;-0.39;73.24;99043.66;5110656;28;20051;-78
2021/12/12 00:21:03;;;;;;;86.35;33.92;;;;;;;-0.39;73.04;99043.66;5109630;28;20032;-75
2021/12/12 00:23:29;;;;;;;72.97;29.65;;;;;;;-0.36;73.31;99047.78;5110830;28;20057;-75
2021/12/12 00:25:58;;;;;;;54.47;22.85;;;;;;;-0.34;73.22;99043.00;5091384;28;20036;-73
2021/12/12 00:28:25;;;;;;;57.75;25.17;;;;;;;-0.31;73.30;99035.34;5110559;28;20563;-74
2021/12/12 00:30:55;;;;;;;87.30;31.20;;;;;;;-0.30;73.07;99041.56;5110269;28;20380;-75
2021/12/12 00:33:21;;;;;;;82.40;29.95;;;;;;;-0.29;73.04;99045.09;5110743;28;20024;-75
2021/12/12 00:35:49;;;;;;;84.45;32.05;;;;;;;-0.34;72.75;99051.94;5110210;28;20023;-73
2021/12/12 00:38:20;;;;;;;71.80;28.98;;;;;;;-0.35;73.02;99047.59;5110302;28;20031;-73
2021/12/12 00:40:49;;;;;;;61.80;27.30;;;;;;;-0.31;72.94;99046.13;5110210;28;20531;-74
2021/12/12 00:43:22;;;;;;;62.63;26.52;;;;;;;-0.32;72.94;99055.25;5110461;28;20126;-74
2021/12/12 00:45:50;;;;;;;77.25;30.83;;;;;;;-0.31;72.80;99056.91;5110103;28;20024;-74
2021/12/12 00:48:15;;;;;;;69.13;28.42;;;;;;;-0.30;73.10;99060.41;5110074;28;20019;-74
2021/12/12 00:50:43;;;;;;;67.65;28.83;;;;;;;-0.26;72.86;99058.16;5110084;28;20023;-74
2021/12/12 00:53:11;;;;;;;58.35;25.92;;;;;;;-0.24;73.29;99056.06;5110210;28;20030;-74
2021/12/12 00:55:38;;;;;;;50.00;24.10;;;;;;;-0.29;72.76;99055.88;5109998;28;20084;-74
2021/12/12 00:58:13;;;;;;;55.80;24.35;;;;;;;-0.25;73.09;99067.91;5109733;28;20017;-74
2021/12/12 01:00:47;;;;;;;59.28;27.48;;;;;;;-0.22;72.97;99062.91;5107459;28;20078;-74
2021/12/12 01:03:14;;;;;;;85.43;32.55;;;;;;;-0.21;73.10;99066.44;5107883;28;20023;-75
2021/12/12 01:05:42;;;;;;;78.50;32.22;;;;;;;-0.21;73.20;99071.84;5109068;28;20023;-75
2021/12/12 01:08:10;;;;;;;68.03;28.20;;;;;;;-0.19;73.02;99065.19;5109208;28;20019;-74
2021/12/12 01:10:44;;;;;;;63.33;26.33;;;;;;;-0.20;72.61;99071.59;5108956;28;20035;-74
2021/12/12 01:13:09;;;;;;;54.70;24.05;;;;;;;-0.19;73.51;99069.72;5107846;28;20115;-75
2021/12/12 01:15:50;;;;;;;56.10;24.08;;;;;;;-0.21;72.59;99069.94;5102570;28;20102;-74
2021/12/12 01:18:21;;;;;;;46.42;21.92;;;;;;;-0.23;72.91;99068.53;5090015;28;20395;-76
2021/12/12 01:20:54;;;;;;;49.75;23.55;;;;;;;-0.23;72.45;99063.94;5107490;28;20361;-73
2021/12/12 01:23:26;;;;;;;47.03;21.65;;;;;;;-0.21;72.46;99078.03;5090588;28;20051;-75
2021/12/12 01:25:52;;;;;;;44.65;21.73;;;;;;;-0.17;72.70;99073.03;5108933;28;20027;-75
2021/12/12 01:28:22;;;;;;;45.00;22.13;;;;;;;-0.17;72.96;99075.72;5112401;28;20032;-76
2021/12/12 01:30:50;;;;;;;47.05;22.08;;;;;;;-0.13;72.43;99066.19;5111712;28;20062;-74
2021/12/12 01:33:31;;;;;;;40.28;20.45;;;;;;;-0.09;72.90;99072.00;5112003;28;20494;-75
2021/12/12 01:35:57;;;;;;;44.75;20.20;;;;;;;-0.11;72.73;99077.59;5111478;28;20064;-75
2021/12/12 01:41:08;;;;;;;45.53;21.67;;;;;;;-0.20;72.31;99079.69;5096456;28;20111;-74
2021/12/12 01:43:42;;;;;;;41.45;21.02;;;;;;;-0.23;72.32;99090.09;5112240;28;20106;-75
2021/12/12 01:46:24;;;;;;;42.35;19.85;;;;;;;-0.22;72.28;99089.03;5090939;28;20539;-73
2021/12/12 01:48:58;;;;;;;41.33;20.38;;;;;;;-0.19;72.95;99081.34;5111369;28;20032;-73
2021/12/12 01:51:26;;;;;;;43.35;21.15;;;;;;;-0.17;72.45;99078.44;5111708;28;20490;-74
2021/12/12 01:53:55;;;;;;;40.97;20.10;;;;;;;-0.17;72.68;99071.19;5111669;28;20107;-74
2021/12/12 01:56:50;;;;;;;49.70;24.48;;;;;;;-0.18;72.55;99076.78;5110909;28;20057;-76
2021/12/12 01:59:18;;;;;;;45.70;21.83;;;;;;;-0.22;72.48;99076.38;5110446;28;20023;-75
2021/12/12 02:01:50;;;;;;;53.28;25.08;;;;;;;-0.19;72.39;99080.50;5111342;28;20031;-76
2021/12/12 02:04:22;;;;;;;49.13;23.33;;;;;;;-0.17;72.68;99084.66;5111249;28;20031;-76
2021/12/12 02:06:51;;;;;;;46.28;22.85;;;;;;;-0.16;72.63;99086.31;5111159;27;20047;-76
2021/12/12 02:09:18;;;;;;;52.28;24.27;;;;;;;-0.21;72.72;99078.03;5112087;28;20429;-76
2021/12/12 02:11:46;;;;;;;53.97;24.45;;;;;;;-0.19;72.65;99092.13;5112065;28;20019;-76
2021/12/12 02:14:17;;;;;;;53.85;24.42;;;;;;;-0.18;72.71;99090.25;5112097;28;20016;-76
2021/12/12 02:16:47;;;;;;;51.85;25.42;;;;;;;-0.15;72.47;99097.94;5111304;28;20073;-76
2021/12/12 02:19:14;;;;;;;;;;;;;;;-0.11;72.77;99103.75;5112250;28;20120;-76
2021/12/12 02:22:35;;;;;;;52.75;25.48;;;;;;;-0.10;72.55;99100.81;5092803;28;19957;-76
2021/12/12 02:35:07;;;;;;;59.08;27.10;;;;;;;-0.16;72.87;99109.75;5102532;28;20468;-76
2021/12/12 02:35:43;;;;;;;58.10;27.92;;;;;;;-0.27;72.94;99122.00;5109759;28;20084;-76
2021/12/12 02:38:13;;;;;;;59.25;28.42;;;;;;;-0.31;72.32;99118.91;5110202;28;20016;-76
2021/12/12 02:40:43;;;;;;;62.37;29.60;;;;;;;-0.36;72.71;99124.09;5111632;28;20040;-77
2021/12/12 02:43:10;;;;;;;;;;;;;;;-0.41;72.96;99125.75;5092351;28;20020;-77
2021/12/12 02:45:36;;;;;;;57.60;28.30;;;;;;;-0.49;72.51;99126.78;5092711;28;19920;-77
2021/12/12 02:48:06;;;;;;;59.85;28.35;;;;;;;-0.54;72.93;99129.25;5110847;28;20111;-77
2021/12/12 02:50:44;;;;;;;57.70;29.13;;;;;;;-0.58;72.95;99130.72;5109036;28;20488;-77
2021/12/12 02:53:21;;;;;;;53.85;26.58;;;;;;;-0.60;73.32;99134.44;5109400;28;20053;-77
2021/12/12 02:55:56;;;;;;;53.78;27.30;;;;;;;-0.57;73.40;99137.75;5110849;28;20498;-77
2021/12/12 02:58:23;;;;;;;55.47;26.50;;;;;;;-0.54;73.76;99138.19;5092423;28;20035;-76
2021/12/12 03:00:59;;;;;;;59.28;27.60;;;;;;;-0.54;73.68;99140.88;5111212;28;20023;-77
2021/12/12 03:03:28;;;;;;;58.00;29.38;;;;;;;-0.52;73.21;99132.59;5111053;28;20073;-76
2021/12/12 03:05:57;;;;;;;55.40;28.00;;;;;;;-0.52;73.29;99143.38;5113742;27;20539;-77
2021/12/12 03:08:22;;;;;;;53.67;26.02;;;;;;;-0.51;73.40;99139.63;5111244;28;20045;-77
2021/12/12 03:10:51;;;;;;;58.92;25.92;;;;;;;-0.45;73.73;99149.59;5110721;28;20060;-78
2021/12/12 03:13:17;;;;;;;56.92;29.20;;;;;;;-0.45;73.59;99138.81;5110562;28;20102;-77
2021/12/12 03:15:44;;;;;;;47.65;23.83;;;;;;;-0.42;73.67;99146.47;5110733;28;20024;-77
2021/12/12 03:18:14;;;;;;;58.95;28.13;;;;;;;-0.43;73.52;99139.44;5108516;28;20083;-77
2021/12/12 03:20:47;;;;;;;52.22;26.40;;;;;;;-0.45;73.40;99141.50;5110914;28;20024;-77
2021/12/12 03:23:29;;;;;;;63.25;29.75;;;;;;;-0.35;73.97;99147.31;5108660;28;20102;-77
2021/12/12 03:25:59;;;;;;;61.72;28.95;;;;;;;-0.24;73.80;99136.94;5110870;28;20093;-76
2021/12/12 03:28:28;;;;;;;55.08;26.38;;;;;;;-0.16;73.65;99140.25;5092463;28;20398;-76
2021/12/12 03:30:56;;;;;;;56.92;27.08;;;;;;;-0.14;73.51;99136.53;5110402;28;20028;-76
2021/12/12 03:33:23;;;;;;;63.55;29.65;;;;;;;-0.11;73.35;99136.91;5111045;28;20019;-77
2021/12/12 03:35:53;;;;;;;63.42;29.20;;;;;;;-0.11;73.71;99138.78;5091121;28;20391;-77
2021/12/12 03:38:21;;;;;;;55.35;26.73;;;;;;;-0.18;73.32;99138.78;5109713;28;20067;-77
2021/12/12 03:40:47;;;;;;;60.20;27.08;;;;;;;-0.27;73.21;99140.06;5111125;27;20059;-74
2021/12/12 03:43:14;;;;;;;59.28;27.75;;;;;;;-0.35;73.25;99138.38;5112700;27;20035;-73
2021/12/12 03:45:44;;;;;;;59.80;28.27;;;;;;;-0.41;73.47;99137.34;5094052;28;20031;-77
2021/12/12 03:48:13;;;;;;;59.80;28.00;;;;;;;-0.44;73.55;99137.78;5091192;28;20024;-77
2021/12/12 03:50:41;;;;;;;65.28;29.73;;;;;;;-0.47;73.41;99138.19;5110801;28;20062;-74
2021/12/12 03:53:07;;;;;;;66.65;30.55;;;;;;;-0.50;73.59;99139.44;5068488;28;20031;-74
2021/12/12 03:55:34;;;;;;;60.00;28.55;;;;;;;-0.54;73.58;99129.25;5070366;28;20515;-75
2021/12/12 03:58:01;;;;;;;57.85;27.52;;;;;;;-0.53;73.73;99139.00;5108431;28;20015;-75
2021/12/12 04:00:31;;;;;;;67.72;31.50;;;;;;;-0.52;73.46;99141.50;5109159;28;20038;-73
2021/12/12 04:02:58;;;;;;;59.00;27.58;;;;;;;-0.49;73.98;99135.72;5108748;28;20471;-73
2021/12/12 04:05:23;;;;;;;60.70;28.17;;;;;;;-0.52;73.49;99146.06;5110158;28;20046;-74
2021/12/12 04:07:49;;;;;;;59.75;29.08;;;;;;;-0.58;73.56;99147.72;5109507;28;20032;-73
2021/12/12 04:10:19;;;;;;;57.40;27.20;;;;;;;-0.60;73.48;99157.88;5110014;28;20442;-74
2021/12/12 04:12:47;;;;;;;66.53;28.95;;;;;;;-0.62;73.62;99160.78;5109448;28;20020;-74
2021/12/12 04:15:12;;;;;;;147.25;41.75;;;;;;;-0.68;73.81;99158.91;5109327;28;20030;-74
2021/12/12 04:17:38;;;;;;;214.07;53.95;;;;;;;-0.72;73.44;99164.91;5091255;28;20027;-73
2021/12/12 04:20:15;;;;;;;185.32;55.20;;;;;;;-0.82;73.61;99174.22;5109763;28;20095;-74
2021/12/12 04:22:40;;;;;;;211.00;58.28;;;;;;;-0.90;73.59;99167.16;5091197;28;20032;-76
2021/12/12 04:25:07;;;;;;;134.25;41.22;;;;;;;-0.92;74.03;99169.22;5108953;28;20015;-77
2021/12/12 04:27:33;;;;;;;109.10;36.28;;;;;;;-0.98;73.83;99172.72;5108985;28;20043;-77
2021/12/12 04:30:03;;;;;;;80.78;31.08;;;;;;;-1.04;73.64;99173.56;5109881;28;20710;-77
2021/12/12 04:32:29;;;;;;;76.57;31.02;;;;;;;-1.14;73.88;99176.59;5109583;28;20065;-76
2021/12/12 04:35:11;;;;;;;69.78;29.95;;;;;;;-1.21;73.75;99183.81;5109210;28;20046;-76
2021/12/12 04:37:37;;;;;;;66.43;29.75;;;;;;;-1.28;73.53;99191.06;5107743;28;20030;-77
2021/12/12 04:40:04;;;;;;;69.85;30.52;;;;;;;-1.36;73.51;99192.06;5109267;28;20020;-76
2021/12/12 04:42:36;;;;;;;71.55;31.92;;;;;;;-1.40;73.61;99196.16;5109005;28;20031;-76
2021/12/12 04:45:29;;;;;;;66.82;29.42;;;;;;;-1.51;73.64;99198.41;5108826;28;20036;-76
2021/12/12 04:51:20;;;;;;;63.50;30.70;;;;;;;-1.66;73.84;99228.13;5109571;28;20510;-77
2021/12/12 04:53:59;;;;;;;66.00;27.45;;;;;;;-1.74;73.75;99228.28;5108478;28;20092;-77
2021/12/12 04:56:25;;;;;;;64.82;28.42;;;;;;;-1.81;73.86;99235.47;5109446;28;20012;-77
2021/12/12 04:59:14;;;;;;;62.22;27.88;;;;;;;-1.89;73.79;99228.41;5091027;28;20024;-77
2021/12/12 05:01:48;;;;;;;57.72;25.65;;;;;;;-1.95;73.83;99238.06;5111953;28;20024;-77
2021/12/12 05:04:45;;;;;;;53.22;25.15;;;;;;;-1.99;74.00;99241.34;5095308;28;20430;-78
2021/12/12 05:07:18;;;;;;;55.75;26.02;;;;;;;-2.02;74.01;99245.22;5103440;28;20031;-77
2021/12/12 05:10:12;;;;;;;50.67;23.92;;;;;;;-2.09;74.16;99249.75;5098627;27;20027;-77
2021/12/12 05:12:51;;;;;;;52.50;25.20;;;;;;;-2.13;73.91;99249.28;5110098;27;20070;-77
2021/12/12 05:15:28;;;;;;;53.72;24.70;;;;;;;-2.15;74.02;99255.91;5111889;27;21015;-77
2021/12/12 05:18:01;;;;;;;56.03;26.05;;;;;;;-2.17;74.04;99257.94;5112298;28;20047;-76
2021/12/12 05:20:35;;;;;;;49.70;24.33;;;;;;;-2.24;74.28;99252.50;5113022;28;20077;-77
2021/12/12 05:23:06;;;;;;;52.15;25.25;;;;;;;-2.28;73.94;99249.38;5113567;28;20023;-76
2021/12/12 05:25:59;;;;;;;54.38;27.00;;;;;;;-2.35;74.04;99255.72;5113541;28;20027;-76
2021/12/12 05:28:39;;;;;;;60.58;30.90;;;;;;;-2.44;74.03;99250.47;5050988;28;20032;-75
2021/12/12 05:31:08;;;;;;;59.85;30.13;;;;;;;-2.50;73.86;99258.47;5095820;28;20093;-75
2021/12/12 05:33:36;;;;;;;62.53;31.23;;;;;;;-2.56;74.01;99252.00;5097118;28;20380;-75
2021/12/12 05:36:02;;;;;;;55.35;28.08;;;;;;;-2.60;74.03;99264.13;5113458;28;20022;-75
2021/12/12 05:38:29;;;;;;;51.63;26.70;;;;;;;-2.64;73.79;99268.22;5114318;28;20027;-76
2021/12/12 05:40:55;;;;;;;58.25;27.80;;;;;;;-2.67;74.04;99260.56;5114642;27;20038;-76
2021/12/12 05:43:21;;;;;;;53.03;26.13;;;;;;;-2.74;73.87;99261.31;5113702;28;20286;-75
2021/12/12 05:45:48;;;;;;;51.10;26.05;;;;;;;-2.79;73.60;99261.06;5113185;28;20034;-75
2021/12/12 05:48:14;;;;;;;57.50;27.88;;;;;;;-2.86;73.97;99258.31;5107880;28;20027;-75
2021/12/12 05:50:41;;;;;;;53.33;26.15;;;;;;;-2.91;73.99;99251.81;5112812;28;20658;-75
2021/12/12 05:53:08;;;;;;;58.30;28.58;;;;;;;-2.97;73.60;99255.25;5094931;28;20027;-75
2021/12/12 05:55:36;;;;;;;55.60;26.63;;;;;;;-3.02;73.86;99264.69;5113064;28;20037;-75
2021/12/12 05:58:05;;;;;;;53.25;25.77;;;;;;;-3.05;73.49;99267.75;5112944;28;20028;-75
2021/12/12 06:00:35;;;;;;;51.88;25.20;;;;;;;-3.11;73.95;99273.06;5113304;28;20492;-75
2021/12/12 06:03:02;;;;;;;61.88;26.73;;;;;;;-3.19;73.70;99263.25;5113047;28;20027;-75
2021/12/12 06:05:31;;;;;;;61.35;27.45;;;;;;;-3.24;73.73;99265.66;5112532;28;20103;-75
2021/12/12 06:07:57;;;;;;;62.03;28.50;;;;;;;-3.29;73.79;99268.91;5112861;28;20026;-75
2021/12/12 06:10:27;;;;;;;63.40;28.02;;;;;;;-3.37;73.71;99267.16;5112844;28;20080;-75
2021/12/12 06:12:54;;;;;;;67.85;30.88;;;;;;;-3.46;73.85;99265.56;5112397;28;20059;-74
2021/12/12 06:15:23;;;;;;;62.22;30.25;;;;;;;-3.57;73.68;99274.91;5111877;28;20194;-75
2021/12/12 06:17:50;;;;;;;67.88;30.25;;;;;;;-3.65;73.77;99265.13;5113836;28;20117;-75
2021/12/12 06:20:17;;;;;;;71.22;29.45;;;;;;;-3.70;74.06;99261.34;5093982;28;20035;-75
2021/12/12 06:22:44;;;;;;;63.55;29.00;;;;;;;-3.69;74.02;99263.81;5110975;28;20024;-75
2021/12/12 06:25:10;;;;;;;68.60;30.20;;;;;;;-3.68;73.90;99270.84;5108218;28;20344;-75
2021/12/12 06:27:37;;;;;;;66.53;30.38;;;;;;;-3.68;74.10;99259.31;5112134;28;20027;-75
2021/12/12 06:30:08;;;;;;;58.58;28.05;;;;;;;-3.70;74.24;99270.19;5112013;28;20023;-75
2021/12/12 06:32:33;;;;;;;60.03;27.75;;;;;;;-3.69;74.26;99266.50;5111943;28;20020;-75
2021/12/12 06:34:59;;;;;;;63.63;27.33;;;;;;;-3.65;74.06;99266.94;5111678;28;20520;-75
2021/12/12 06:37:25;;;;;;;60.05;29.40;;;;;;;-3.66;74.41;99267.97;5093887;28;20028;-76
2021/12/12 06:39:52;;;;;;;63.08;29.10;;;;;;;-3.66;74.27;99266.13;5111956;28;20031;-76
2021/12/12 06:42:18;;;;;;;60.47;27.58;;;;;;;-3.71;73.73;99265.03;5112698;28;20044;-76
2021/12/12 06:44:44;;;;;;;60.65;28.05;;;;;;;-3.81;73.97;99278.66;5111865;28;20028;-75
2021/12/12 06:47:14;;;;;;;59.63;28.08;;;;;;;-3.86;73.51;99270.34;5111237;28;20849;-75
2021/12/12 06:49:39;;;;;;;56.40;26.85;;;;;;;-3.92;73.96;99264.72;5111879;28;20027;-76
2021/12/12 06:52:08;;;;;;;57.63;25.48;;;;;;;-3.95;73.80;99262.41;5110566;28;20027;-76
2021/12/12 06:54:34;;;;;;;62.30;27.00;;;;;;;-3.95;74.25;99270.44;5112526;28;20095;-75
2021/12/12 06:57:04;;;;;;;60.85;26.27;;;;;;;-3.94;74.30;99274.78;5111706;28;20027;-75
2021/12/12 06:59:34;;;;;;;59.97;28.33;;;;;;;-3.88;74.40;99283.94;5112652;28;20077;-75
2021/12/12 07:02:00;;;;;;;63.38;27.98;;;;;;;-3.83;74.18;99296.78;5115174;27;20093;-75
2021/12/12 07:04:28;;;;;;;56.80;27.10;;;;;;;-3.83;74.51;99292.28;5111604;28;20589;-75
2021/12/12 07:06:58;;;;;;;62.45;28.17;;;;;;;-3.79;74.67;99295.41;5110706;28;20027;-75
2021/12/12 07:09:26;;;;;;;57.05;27.17;;;;;;;-3.77;74.46;99301.41;5110066;28;20032;-75
2021/12/12 07:11:56;;;;;;;62.20;28.25;;;;;;;-3.77;74.18;99290.69;5111678;28;20077;-75
2021/12/12 07:14:21;;;;;;;71.32;30.77;;;;;;;-3.81;73.89;99292.91;5111847;28;20023;-74
2021/12/12 07:16:47;;;;;;;74.18;31.67;;;;;;;-3.78;74.02;99302.44;5111460;28;20032;-75
2021/12/12 07:19:17;;;;;;;72.28;31.23;;;;;;;-3.76;74.06;99297.72;5111483;28;20086;-75
2021/12/12 07:21:43;;;;;;;73.20;31.30;;;;;;;-3.84;73.84;99295.13;5111572;28;20031;-74
2021/12/12 07:24:10;;;;;;;76.28;34.08;;;;;;;-3.91;74.04;99303.06;5111094;28;20035;-75
2021/12/12 07:26:35;;;;;;;75.13;32.83;;;;;;;-3.90;73.80;99302.03;5111274;28;20027;-75
2021/12/12 07:29:03;;;;;;;107.40;38.33;;;;;;;-3.93;73.95;99292.53;5110896;28;20080;-75
2021/12/12 07:31:32;;;;;;;144.95;44.80;;;;;;;-3.93;74.07;99294.38;5111662;28;20476;-75
2021/12/12 07:34:00;;;;;;;176.85;49.88;;;;;;;-3.89;74.23;99298.34;5110142;28;20028;-75
2021/12/12 07:36:30;;;;;;;131.70;42.47;;;;;;;-3.82;74.50;99288.56;5110843;28;20744;-75
2021/12/12 07:38:59;;;;;;;114.45;38.60;;;;;;;-3.72;74.36;99295.53;5111464;28;20063;-76
2021/12/12 07:41:29;;;;;;;99.82;38.60;;;;;;;-3.64;74.67;99295.41;5111534;28;20032;-76
2021/12/12 07:43:56;;;;;;;94.63;34.20;;;;;;;-3.57;75.02;99309.78;5111854;28;20380;-77
2021/12/12 07:46:23;;;;;;;109.53;43.40;;;;;;;-3.47;75.01;99315.72;5110929;28;20498;-76
2021/12/12 07:48:51;;;;;;;112.47;43.45;;;;;;;-3.36;74.99;99327.81;5111532;28;20687;-76
2021/12/12 07:51:18;;;;;;;95.97;39.42;;;;;;;-3.27;74.85;99319.69;5110974;28;20475;-76
2021/12/12 07:53:45;;;;;;;87.68;36.13;;;;;;;-3.18;75.15;99321.28;5111307;28;20028;-76
2021/12/12 07:56:11;;;;;;;64.63;30.92;;;;;;;-3.09;75.41;99324.69;5110521;28;20024;-76
2021/12/12 07:58:37;;;;;;;56.38;29.98;;;;;;;-2.94;75.74;99320.16;5110672;28;20038;-76
2021/12/12 08:01:05;;;;;;;53.28;23.88;;;;;;;-2.81;75.76;99324.00;5109141;27;20028;-75
2021/12/12 08:03:34;;;;;;;47.95;23.48;;;;;;;-2.70;75.63;99320.84;5110634;28;20027;-76
2021/12/12 08:06:00;;;;;;;50.85;22.60;;;;;;;-2.62;75.54;99315.38;5112651;27;20032;-76
2021/12/12 08:08:28;;;;;;;43.92;21.50;;;;;;;-2.51;75.94;99324.78;5110276;28;20038;-75
2021/12/12 08:10:55;;;;;;;45.15;21.60;;;;;;;-2.40;75.98;99326.97;5092111;28;20023;-76
2021/12/12 08:13:21;;;;;;;46.40;22.75;;;;;;;-2.28;76.02;99329.16;5111234;28;20027;-75
2021/12/12 08:15:47;;;;;;;60.90;28.73;;;;;;;-2.16;76.15;99335.69;5110020;27;20092;-75
2021/12/12 08:18:15;;;;;;;56.78;26.55;;;;;;;-2.04;76.16;99343.25;5109252;28;20099;-74
2021/12/12 08:20:43;;;;;;;61.10;29.10;;;;;;;-1.96;76.22;99337.75;5109150;28;20118;-74
2021/12/12 08:23:10;;;;;;;63.13;30.73;;;;;;;-1.88;75.65;99348.38;5109535;28;20055;-74
2021/12/12 08:25:37;;;;;;;103.70;44.45;;;;;;;-1.85;75.72;99331.84;5109398;28;20464;-75
2021/12/12 08:28:04;;;;;;;97.53;44.38;;;;;;;-1.74;75.96;99337.72;5109176;28;20020;-74
2021/12/12 08:30:31;;;;;;;81.57;39.03;;;;;;;-1.65;75.86;99334.69;5109231;28;20042;-74
2021/12/12 08:32:57;;;;;;;54.53;26.23;;;;;;;-1.58;75.85;99339.28;5109353;28;20039;-75
2021/12/12 08:35:24;;;;;;;81.43;39.40;;;;;;;-1.56;75.90;99334.53;5110858;28;20020;-75
2021/12/12 08:37:50;;;;;;;66.78;32.30;;;;;;;-1.51;75.90;99326.72;5113548;28;20379;-76
2021/12/12 08:40:20;;;;;;;53.33;26.23;;;;;;;-1.48;75.85;99334.41;5113693;28;20028;-75
2021/12/12 08:42:48;;;;;;;68.50;30.33;;;;;;;-1.48;75.63;99336.28;5113645;28;20408;-75
2021/12/12 08:45:17;;;;;;;90.82;37.78;;;;;;;-1.50;75.98;99339.13;5113275;28;20085;-76
2021/12/12 08:47:43;;;;;;;65.57;29.13;;;;;;;-1.49;75.71;99332.72;5113480;28;20042;-76
2021/12/12 08:50:12;;;;;;;86.80;34.58;;;;;;;-1.50;75.52;99336.44;5113274;28;20028;-75
2021/12/12 08:52:41;;;;;;;87.15;34.45;;;;;;;-1.52;75.28;99335.81;5113438;28;20027;-75
2021/12/12 08:55:18;;;;;;;152.55;49.97;;;;;;;-1.50;75.70;99339.13;5113211;28;20081;-75
2021/12/12 08:58:19;;;;;;;128.30;45.72;;;;;;;-1.49;75.72;99340.81;5111405;28;20027;-75
2021/12/12 09:00:41;;;;;;;94.78;41.05;;;;;;;-1.45;75.78;99341.25;5110611;28;20035;-75
2021/12/12 09:03:09;;;;;;;68.07;29.92;;;;;;;-1.47;75.69;99335.25;5094748;28;20072;-74
2021/12/12 09:05:38;;;;;;;54.60;25.70;;;;;;;-1.48;75.50;99331.69;5113301;28;20027;-75
2021/12/12 09:08:08;;;;;;;51.28;24.85;;;;;;;-1.49;75.63;99330.03;5113474;28;20022;-75
2021/12/12 09:10:37;;;;;;;;;;;;;;;-1.47;75.30;99340.63;5111651;27;20030;-75
2021/12/12 09:13:13;;;;;;;61.77;28.33;;;;;;;-1.51;75.41;99338.31;5112623;28;19920;-75
2021/12/12 09:15:52;;;;;;;55.38;25.75;;;;;;;-1.54;75.51;99337.88;5112783;28;20028;-75
2021/12/12 09:18:31;;;;;;;69.05;31.13;;;;;;;-1.55;75.59;99333.50;5110319;28;20487;-75
2021/12/12 09:21:07;;;;;;;71.40;31.75;;;;;;;-1.56;75.58;99339.91;5111932;28;20024;-75
2021/12/12 09:24:21;;;;;;;73.15;31.27;;;;;;;-1.66;75.78;99346.50;5111339;28;20024;-76
2021/12/12 09:26:50;;;;;;;54.58;24.88;;;;;;;-1.73;75.78;99336.69;5100042;28;20128;-76
2021/12/12 09:29:29;;;;;;;48.22;22.67;;;;;;;-1.77;75.54;99338.94;5111654;28;20019;-75
2021/12/12 09:32:08;;;;;;;40.13;19.77;;;;;;;-1.74;75.75;99338.56;5112029;28;20573;-75
2021/12/12 09:34:38;;;;;;;42.20;21.15;;;;;;;-1.76;75.66;99337.06;5112575;28;20050;-75
2021/12/12 09:37:12;;;;;;;51.60;23.70;;;;;;;-1.74;75.46;99333.19;5111734;28;20087;-75
2021/12/12 09:39:46;;;;;;;46.15;22.75;;;;;;;-1.70;74.92;99331.75;5112434;28;20074;-75
2021/12/12 09:42:46;;;;;;;48.15;23.15;;;;;;;-1.69;75.72;99324.50;5110181;28;20112;-75
2021/12/12 09:45:27;;;;;;;56.53;29.20;;;;;;;-1.61;75.21;99329.75;5111572;28;20448;-75
2021/12/12 09:48:27;;;;;;;50.95;24.00;;;;;;;-1.53;75.72;99328.75;5111025;28;20020;-75
2021/12/12 09:51:14;;;;;;;;;;;;;;;-1.48;76.01;99326.31;5112313;28;20357;-75
2021/12/12 09:54:02;;;;;;;40.47;18.88;;;;;;;-1.44;75.58;99332.16;5111691;28;19930;-75
2021/12/12 09:56:40;;;;;;;44.15;21.58;;;;;;;-1.41;75.66;99329.06;5111586;28;20026;-75
2021/12/12 09:59:23;;;;;;;44.30;19.83;;;;;;;-1.34;75.34;99329.94;5111354;28;20153;-75
2021/12/12 10:02:14;;;;;;;46.10;21.10;;;;;;;-1.33;75.28;99333.47;5111202;28;20206;-75
2021/12/12 10:04:46;;;;;;;44.83;17.73;;;;;;;-1.34;75.16;99324.56;5093099;28;20034;-75
2021/12/12 10:07:29;;;;;;;61.28;30.10;;;;;;;-1.31;75.11;99336.81;5111281;28;20585;-75
2021/12/12 10:09:58;;;;;;;91.88;37.58;;;;;;;-1.27;75.23;99332.69;5113406;27;20030;-74
2021/12/12 10:12:28;;;;;;;82.65;32.50;;;;;;;-1.27;74.69;99330.81;5111796;28;20019;-75
2021/12/12 10:15:14;;;;;;;;;;;;;;;-1.26;75.16;99326.28;5093952;28;20024;-75
2021/12/12 10:17:47;;;;;;;88.40;35.47;;;;;;;-1.23;74.69;99325.88;5109289;28;19968;-75
2021/12/12 10:20:33;;;;;;;91.60;34.58;;;;;;;-1.27;74.89;99314.66;5111597;28;20033;-75
2021/12/12 10:23:23;;;;;;;98.88;40.45;;;;;;;-1.24;74.64;99316.97;5109321;28;20051;-75
2021/12/12 10:25:54;;;;;;;83.00;35.77;;;;;;;-1.16;74.77;99312.44;5110317;28;20102;-75
2021/12/12 10:28:33;;;;;;;77.90;30.52;;;;;;;-1.13;74.62;99307.50;5111647;28;20676;-75
2021/12/12 10:31:18;;;;;;;65.20;27.37;;;;;;;-1.11;74.67;99302.75;5107980;28;20051;-75
2021/12/12 10:33:51;;;;;;;57.90;26.20;;;;;;;-1.01;74.88;99304.25;5111190;28;20273;-75
2021/12/12 10:36:21;;;;;;;64.32;27.63;;;;;;;-0.89;74.48;99297.25;5112400;28;20028;-75
2021/12/12 10:39:00;;;;;;;69.97;28.17;;;;;;;-0.78;74.56;99306.63;5094115;28;20523;-75
2021/12/12 10:41:31;;;;;;;89.18;31.10;;;;;;;-0.68;74.15;99300.84;5112594;28;20096;-75
2021/12/12 10:44:02;;;;;;;78.28;29.95;;;;;;;-0.69;73.73;99297.34;5112855;28;20023;-76
2021/12/12 10:46:36;;;;;;;55.83;24.80;;;;;;;-0.60;73.88;99304.19;5112526;28;20102;-76
2021/12/12 10:49:17;;;;;;;38.10;16.63;;;;;;;-0.51;73.81;99304.84;5112473;28;20024;-76
2021/12/12 10:51:50;;;;;;;59.63;27.50;;;;;;;-0.46;73.56;99301.53;5112234;28;20031;-76
2021/12/12 10:54:37;;;;;;;55.60;25.80;;;;;;;-0.41;73.24;99301.78;5112535;28;20487;-76
2021/12/12 10:57:08;;;;;;;44.03;20.83;;;;;;;-0.35;73.55;99303.66;5112167;28;20446;-75
2021/12/12 10:59:56;;;;;;;45.33;22.50;;;;;;;-0.32;72.98;99297.00;5092573;28;20065;-74
2021/12/12 11:02:28;;;;;;;51.65;24.60;;;;;;;-0.28;72.98;99297.44;5110975;28;20058;-75
2021/12/12 11:05:04;;;;;;;51.78;22.15;;;;;;;-0.27;72.33;99294.53;5112113;28;20044;-75
2021/12/12 11:07:37;;;;;;;52.65;28.13;;;;;;;-0.23;72.41;99286.88;5112027;28;20049;-75
2021/12/12 11:10:06;;;;;;;81.65;36.33;;;;;;;-0.17;72.24;99291.44;5111925;28;20502;-75
2021/12/12 11:12:44;;;;;;;65.65;31.20;;;;;;;-0.16;72.32;99293.09;5111911;28;20102;-76
2021/12/12 11:15:35;;;;;;;62.70;27.33;;;;;;;-0.16;72.48;99295.78;5111439;28;20035;-75
2021/12/12 11:18:15;;;;;;;54.90;23.83;;;;;;;-0.17;72.13;99300.38;5111128;28;20504;-76
2021/12/12 11:20:48;;;;;;;68.03;28.08;;;;;;;-0.14;71.92;99303.69;5090904;28;20590;-76
2021/12/12 11:23:20;;;;;;;52.33;24.38;;;;;;;-0.11;71.64;99293.31;5111640;28;20078;-76
2021/12/12 11:25:56;;;;;;;47.67;22.48;;;;;;;-0.05;71.59;99299.75;5111882;28;20432;-75
2021/12/12 11:28:35;;;;;;;49.65;25.20;;;;;;;-0.03;71.64;99289.59;5114011;27;20023;-76
2021/12/12 11:31:15;;;;;;;52.95;22.42;;;;;;;-0.02;71.68;99297.47;5112895;27;20102;-76
2021/12/12 11:33:45;;;;;;;58.55;25.02;;;;;;;0.02;71.53;99294.38;5109257;28;20024;-75
2021/12/12 11:36:14;;;;;;;61.92;25.70;;;;;;;0.06;71.53;99291.03;5110986;28;20505;-76
2021/12/12 11:38:47;;;;;;;50.83;23.40;;;;;;;0.09;70.87;99296.03;5110887;28;20028;-76
2021/12/12 11:41:19;;;;;;;56.70;22.92;;;;;;;0.11;70.25;99298.53;5110537;28;20524;-76
2021/12/12 11:43:57;;;;;;;69.15;30.08;;;;;;;0.10;71.48;99296.88;5092652;28;20512;-76
2021/12/12 11:47:06;;;;;;;63.10;27.52;;;;;;;0.11;71.33;99293.13;5110714;28;20024;-75
2021/12/12 11:49:50;;;;;;;46.50;21.20;;;;;;;0.14;70.37;99292.72;5008604;28;20438;-75
2021/12/12 11:52:33;;;;;;;40.28;19.15;;;;;;;0.16;69.95;99292.50;4991858;28;20030;-75
2021/12/12 11:55:33;;;;;;;42.08;19.90;;;;;;;0.13;70.37;99293.75;5085466;28;20542;-76